sensor_id;sensor_type;location;lat;lon;timestamp;P1;durP1;ratioP1;P2;durP2;ratioP2
17650;SDS011;26663;59.302;18.082;2022-12-29T00:00:31;11.17;;;4.10;;
17650;SDS011;26663;59.302;18.082;2022-12-29T00:03:38;7.40;;;4.53;;
17650;SDS011;26663;59.302;18.082;2022-12-29T00:06:43;22.60;;;5.90;;
17650;SDS011;26663;59.302;18.082;2022-12-29T00:09:49;20.47;;;5.40;;
17650;SDS011;26663;59.302;18.082;2022-12-29T00:12:54;13.13;;;5.07;;
17650;SDS011;26663;59.302;18.082;2022-12-29T00:16:17;24.50;;;5.77;;
17650;SDS011;26663;59.302;18.082;2022-12-29T00:19:24;34.40;;;5.63;;
17650;SDS011;26663;59.302;18.082;2022-12-29T00:22:46;24.17;;;5.90;;
17650;SDS011;26663;59.302;18.082;2022-12-29T00:26:12;71.93;;;6.93;;
17650;SDS011;26663;59.302;18.082;2022-12-29T00:29:36;32.00;;;6.43;;
17650;SDS011;26663;59.302;18.082;2022-12-29T00:32:59;18.70;;;5.20;;
17650;SDS011;26663;59.302;18.082;2022-12-29T00:36:24;116.00;;;7.93;;
17650;SDS011;26663;59.302;18.082;2022-12-29T00:39:33;24.27;;;5.77;;
17650;SDS011;26663;59.302;18.082;2022-12-29T00:42:56;43.03;;;6.03;;
17650;SDS011;26663;59.302;18.082;2022-12-29T00:46:18;109.60;;;7.33;;
17650;SDS011;26663;59.302;18.082;2022-12-29T00:49:24;51.80;;;5.50;;
17650;SDS011;26663;59.302;18.082;2022-12-29T00:52:40;14.30;;;4.80;;
17650;SDS011;26663;59.302;18.082;2022-12-29T00:55:45;19.07;;;4.63;;
17650;SDS011;26663;59.302;18.082;2022-12-29T00:58:51;41.07;;;5.30;;
17650;SDS011;26663;59.302;18.082;2022-12-29T01:01:56;21.60;;;3.83;;
17650;SDS011;26663;59.302;18.082;2022-12-29T01:05:04;20.50;;;3.87;;
17650;SDS011;26663;59.302;18.082;2022-12-29T01:08:11;23.37;;;4.00;;
17650;SDS011;26663;59.302;18.082;2022-12-29T01:11:16;17.20;;;4.30;;
17650;SDS011;26663;59.302;18.082;2022-12-29T01:14:21;22.27;;;4.50;;
17650;SDS011;26663;59.302;18.082;2022-12-29T01:17:26;34.77;;;4.40;;
17650;SDS011;26663;59.302;18.082;2022-12-29T01:20:31;23.03;;;4.90;;
17650;SDS011;26663;59.302;18.082;2022-12-29T01:23:42;23.27;;;4.47;;
17650;SDS011;26663;59.302;18.082;2022-12-29T01:26:48;14.97;;;4.77;;
17650;SDS011;26663;59.302;18.082;2022-12-29T01:29:54;17.27;;;4.07;;
17650;SDS011;26663;59.302;18.082;2022-12-29T01:32:59;22.60;;;4.37;;
17650;SDS011;26663;59.302;18.082;2022-12-29T01:36:06;18.90;;;3.87;;
17650;SDS011;26663;59.302;18.082;2022-12-29T01:39:15;24.37;;;3.97;;
17650;SDS011;26663;59.302;18.082;2022-12-29T01:42:22;18.13;;;3.50;;
17650;SDS011;26663;59.302;18.082;2022-12-29T01:45:28;16.93;;;4.00;;
17650;SDS011;26663;59.302;18.082;2022-12-29T01:48:34;12.17;;;3.87;;
17650;SDS011;26663;59.302;18.082;2022-12-29T01:51:41;15.63;;;3.53;;
17650;SDS011;26663;59.302;18.082;2022-12-29T01:54:51;16.27;;;3.93;;
17650;SDS011;26663;59.302;18.082;2022-12-29T01:57:59;6.13;;;3.30;;
17650;SDS011;26663;59.302;18.082;2022-12-29T02:01:06;8.43;;;3.40;;
17650;SDS011;26663;59.302;18.082;2022-12-29T02:04:12;7.50;;;2.70;;
17650;SDS011;26663;59.302;18.082;2022-12-29T02:07:20;2.83;;;2.63;;
17650;SDS011;26663;59.302;18.082;2022-12-29T02:10:29;4.43;;;2.43;;
17650;SDS011;26663;59.302;18.082;2022-12-29T02:13:36;2.30;;;2.10;;
17650;SDS011;26663;59.302;18.082;2022-12-29T02:16:47;2.70;;;2.17;;
17650;SDS011;26663;59.302;18.082;2022-12-29T02:31:08;4.40;;;2.73;;
17650;SDS011;26663;59.302;18.082;2022-12-29T02:34:20;4.83;;;2.30;;
17650;SDS011;26663;59.302;18.082;2022-12-29T02:37:31;5.50;;;2.40;;
17650;SDS011;26663;59.302;18.082;2022-12-29T02:40:41;4.73;;;2.60;;
17650;SDS011;26663;59.302;18.082;2022-12-29T02:43:50;4.13;;;2.63;;
17650;SDS011;26663;59.302;18.082;2022-12-29T02:47:03;3.87;;;2.60;;
17650;SDS011;26663;59.302;18.082;2022-12-29T02:50:14;3.87;;;3.07;;
17650;SDS011;26663;59.302;18.082;2022-12-29T02:53:23;8.23;;;3.27;;
17650;SDS011;26663;59.302;18.082;2022-12-29T02:56:42;6.77;;;3.30;;
17650;SDS011;26663;59.302;18.082;2022-12-29T02:59:49;6.13;;;3.57;;
17650;SDS011;26663;59.302;18.082;2022-12-29T03:03:11;7.70;;;3.67;;
17650;SDS011;26663;59.302;18.082;2022-12-29T03:06:27;6.17;;;3.57;;
17650;SDS011;26663;59.302;18.082;2022-12-29T03:09:38;6.83;;;3.87;;
17650;SDS011;26663;59.302;18.082;2022-12-29T03:12:53;10.47;;;4.07;;
17650;SDS011;26663;59.302;18.082;2022-12-29T03:16:21;8.77;;;4.23;;
17650;SDS011;26663;59.302;18.082;2022-12-29T03:19:30;5.77;;;3.93;;
17650;SDS011;26663;59.302;18.082;2022-12-29T03:22:39;12.30;;;4.83;;
17650;SDS011;26663;59.302;18.082;2022-12-29T03:25:51;8.10;;;4.47;;
17650;SDS011;26663;59.302;18.082;2022-12-29T03:29:00;7.90;;;4.63;;
17650;SDS011;26663;59.302;18.082;2022-12-29T03:32:06;11.73;;;5.30;;
17650;SDS011;26663;59.302;18.082;2022-12-29T03:35:15;12.37;;;4.63;;
17650;SDS011;26663;59.302;18.082;2022-12-29T03:38:24;12.63;;;5.57;;
17650;SDS011;26663;59.302;18.082;2022-12-29T03:41:32;12.07;;;5.23;;
17650;SDS011;26663;59.302;18.082;2022-12-29T03:44:39;11.53;;;4.70;;
17650;SDS011;26663;59.302;18.082;2022-12-29T03:47:47;11.20;;;5.53;;
17650;SDS011;26663;59.302;18.082;2022-12-29T03:50:55;11.83;;;5.40;;
17650;SDS011;26663;59.302;18.082;2022-12-29T03:54:00;11.37;;;5.33;;
17650;SDS011;26663;59.302;18.082;2022-12-29T03:57:06;10.30;;;4.90;;
17650;SDS011;26663;59.302;18.082;2022-12-29T04:00:41;10.47;;;4.93;;
17650;SDS011;26663;59.302;18.082;2022-12-29T04:03:46;8.33;;;5.07;;
17650;SDS011;26663;59.302;18.082;2022-12-29T04:06:53;7.80;;;5.00;;
17650;SDS011;26663;59.302;18.082;2022-12-29T04:09:59;10.40;;;5.60;;
17650;SDS011;26663;59.302;18.082;2022-12-29T04:13:07;7.20;;;5.20;;
17650;SDS011;26663;59.302;18.082;2022-12-29T04:16:14;9.37;;;5.03;;
17650;SDS011;26663;59.302;18.082;2022-12-29T04:19:20;5.63;;;4.47;;
17650;SDS011;26663;59.302;18.082;2022-12-29T04:22:26;8.57;;;4.90;;
17650;SDS011;26663;59.302;18.082;2022-12-29T04:25:32;11.20;;;5.30;;
17650;SDS011;26663;59.302;18.082;2022-12-29T04:28:43;6.83;;;5.23;;
17650;SDS011;26663;59.302;18.082;2022-12-29T04:32:07;7.93;;;4.87;;
17650;SDS011;26663;59.302;18.082;2022-12-29T04:35:18;10.57;;;5.37;;
17650;SDS011;26663;59.302;18.082;2022-12-29T04:38:25;8.17;;;5.20;;
17650;SDS011;26663;59.302;18.082;2022-12-29T04:41:33;7.60;;;5.00;;
17650;SDS011;26663;59.302;18.082;2022-12-29T04:44:47;10.40;;;4.80;;
17650;SDS011;26663;59.302;18.082;2022-12-29T04:48:19;8.70;;;5.03;;
17650;SDS011;26663;59.302;18.082;2022-12-29T04:51:47;7.23;;;4.97;;
17650;SDS011;26663;59.302;18.082;2022-12-29T04:54:55;6.17;;;5.13;;
17650;SDS011;26663;59.302;18.082;2022-12-29T04:58:01;6.80;;;4.83;;
17650;SDS011;26663;59.302;18.082;2022-12-29T05:01:10;8.87;;;4.37;;
17650;SDS011;26663;59.302;18.082;2022-12-29T05:04:16;6.23;;;5.07;;
17650;SDS011;26663;59.302;18.082;2022-12-29T05:07:22;5.50;;;4.47;;
17650;SDS011;26663;59.302;18.082;2022-12-29T05:10:30;13.50;;;5.90;;
17650;SDS011;26663;59.302;18.082;2022-12-29T05:13:44;10.90;;;5.23;;
17650;SDS011;26663;59.302;18.082;2022-12-29T05:16:52;5.57;;;4.93;;
17650;SDS011;26663;59.302;18.082;2022-12-29T05:20:02;6.27;;;5.03;;
17650;SDS011;26663;59.302;18.082;2022-12-29T05:23:11;5.90;;;5.07;;
17650;SDS011;26663;59.302;18.082;2022-12-29T05:26:18;6.80;;;5.20;;
17650;SDS011;26663;59.302;18.082;2022-12-29T05:29:49;11.07;;;4.33;;
17650;SDS011;26663;59.302;18.082;2022-12-29T05:32:55;6.10;;;4.37;;
17650;SDS011;26663;59.302;18.082;2022-12-29T05:36:03;4.40;;;3.77;;
17650;SDS011;26663;59.302;18.082;2022-12-29T05:39:11;5.03;;;4.10;;
17650;SDS011;26663;59.302;18.082;2022-12-29T05:42:20;8.27;;;4.67;;
17650;SDS011;26663;59.302;18.082;2022-12-29T05:45:48;12.33;;;4.27;;
17650;SDS011;26663;59.302;18.082;2022-12-29T05:49:10;4.53;;;3.80;;
17650;SDS011;26663;59.302;18.082;2022-12-29T05:52:38;5.23;;;4.73;;
17650;SDS011;26663;59.302;18.082;2022-12-29T05:55:44;4.80;;;4.40;;
17650;SDS011;26663;59.302;18.082;2022-12-29T05:58:53;8.87;;;4.07;;
17650;SDS011;26663;59.302;18.082;2022-12-29T06:02:00;4.60;;;4.30;;
17650;SDS011;26663;59.302;18.082;2022-12-29T06:05:07;9.57;;;4.30;;
17650;SDS011;26663;59.302;18.082;2022-12-29T06:08:15;3.90;;;3.60;;
17650;SDS011;26663;59.302;18.082;2022-12-29T06:11:20;5.83;;;4.23;;
17650;SDS011;26663;59.302;18.082;2022-12-29T06:14:32;6.30;;;4.17;;
17650;SDS011;26663;59.302;18.082;2022-12-29T06:17:39;4.60;;;3.87;;
17650;SDS011;26663;59.302;18.082;2022-12-29T06:20:44;4.50;;;4.10;;
17650;SDS011;26663;59.302;18.082;2022-12-29T06:23:52;8.27;;;4.40;;
17650;SDS011;26663;59.302;18.082;2022-12-29T06:26:58;7.17;;;4.23;;
17650;SDS011;26663;59.302;18.082;2022-12-29T06:30:06;4.60;;;3.83;;
17650;SDS011;26663;59.302;18.082;2022-12-29T06:33:15;4.80;;;3.57;;
17650;SDS011;26663;59.302;18.082;2022-12-29T06:36:24;13.83;;;4.47;;
17650;SDS011;26663;59.302;18.082;2022-12-29T06:39:33;7.60;;;4.33;;
17650;SDS011;26663;59.302;18.082;2022-12-29T06:42:41;10.07;;;4.50;;
17650;SDS011;26663;59.302;18.082;2022-12-29T06:46:12;7.10;;;4.07;;
17650;SDS011;26663;59.302;18.082;2022-12-29T06:49:18;11.60;;;5.47;;
17650;SDS011;26663;59.302;18.082;2022-12-29T06:52:24;8.53;;;4.77;;
17650;SDS011;26663;59.302;18.082;2022-12-29T06:55:31;8.73;;;4.90;;
17650;SDS011;26663;59.302;18.082;2022-12-29T06:58:38;13.33;;;4.83;;
17650;SDS011;26663;59.302;18.082;2022-12-29T07:01:48;11.07;;;5.40;;
17650;SDS011;26663;59.302;18.082;2022-12-29T07:04:55;15.30;;;5.57;;
17650;SDS011;26663;59.302;18.082;2022-12-29T07:08:00;13.43;;;5.50;;
17650;SDS011;26663;59.302;18.082;2022-12-29T07:11:11;14.87;;;5.57;;
17650;SDS011;26663;59.302;18.082;2022-12-29T07:14:16;16.50;;;6.27;;
17650;SDS011;26663;59.302;18.082;2022-12-29T07:17:24;19.60;;;6.50;;
17650;SDS011;26663;59.302;18.082;2022-12-29T07:20:29;15.07;;;6.63;;
17650;SDS011;26663;59.302;18.082;2022-12-29T07:23:34;17.90;;;6.73;;
17650;SDS011;26663;59.302;18.082;2022-12-29T07:26:39;20.67;;;7.00;;
17650;SDS011;26663;59.302;18.082;2022-12-29T07:29:45;17.20;;;6.63;;
17650;SDS011;26663;59.302;18.082;2022-12-29T07:32:52;16.30;;;6.47;;
17650;SDS011;26663;59.302;18.082;2022-12-29T07:35:57;16.13;;;6.20;;
17650;SDS011;26663;59.302;18.082;2022-12-29T07:39:04;15.10;;;5.87;;
17650;SDS011;26663;59.302;18.082;2022-12-29T07:42:13;19.00;;;6.17;;
17650;SDS011;26663;59.302;18.082;2022-12-29T07:45:25;18.00;;;6.60;;
17650;SDS011;26663;59.302;18.082;2022-12-29T07:48:47;15.07;;;6.17;;
17650;SDS011;26663;59.302;18.082;2022-12-29T07:52:01;17.43;;;6.17;;
17650;SDS011;26663;59.302;18.082;2022-12-29T07:55:09;12.17;;;4.93;;
17650;SDS011;26663;59.302;18.082;2022-12-29T07:58:14;14.90;;;5.53;;
17650;SDS011;26663;59.302;18.082;2022-12-29T08:01:19;17.87;;;6.30;;
17650;SDS011;26663;59.302;18.082;2022-12-29T08:04:27;13.83;;;5.43;;
17650;SDS011;26663;59.302;18.082;2022-12-29T08:07:33;18.03;;;5.47;;
17650;SDS011;26663;59.302;18.082;2022-12-29T08:10:38;10.00;;;5.00;;
17650;SDS011;26663;59.302;18.082;2022-12-29T08:13:43;15.30;;;5.27;;
17650;SDS011;26663;59.302;18.082;2022-12-29T08:16:48;14.73;;;5.57;;
17650;SDS011;26663;59.302;18.082;2022-12-29T08:19:55;12.37;;;5.00;;
17650;SDS011;26663;59.302;18.082;2022-12-29T08:23:00;10.63;;;4.10;;
17650;SDS011;26663;59.302;18.082;2022-12-29T08:26:05;11.63;;;4.30;;
17650;SDS011;26663;59.302;18.082;2022-12-29T08:29:12;10.27;;;4.03;;
17650;SDS011;26663;59.302;18.082;2022-12-29T08:32:18;5.37;;;4.13;;
17650;SDS011;26663;59.302;18.082;2022-12-29T08:35:24;6.33;;;4.20;;
17650;SDS011;26663;59.302;18.082;2022-12-29T08:38:29;5.00;;;3.80;;
17650;SDS011;26663;59.302;18.082;2022-12-29T08:41:34;4.23;;;3.53;;
17650;SDS011;26663;59.302;18.082;2022-12-29T08:44:39;9.30;;;4.03;;
17650;SDS011;26663;59.302;18.082;2022-12-29T08:47:45;5.27;;;3.70;;
17650;SDS011;26663;59.302;18.082;2022-12-29T08:50:52;13.80;;;4.97;;
17650;SDS011;26663;59.302;18.082;2022-12-29T08:53:58;10.53;;;4.53;;
17650;SDS011;26663;59.302;18.082;2022-12-29T08:57:03;9.70;;;4.47;;
17650;SDS011;26663;59.302;18.082;2022-12-29T09:00:17;8.70;;;4.17;;
17650;SDS011;26663;59.302;18.082;2022-12-29T09:03:23;7.33;;;3.90;;
17650;SDS011;26663;59.302;18.082;2022-12-29T09:06:50;8.70;;;3.60;;
17650;SDS011;26663;59.302;18.082;2022-12-29T09:09:55;4.47;;;3.30;;
17650;SDS011;26663;59.302;18.082;2022-12-29T09:13:00;3.40;;;3.13;;
17650;SDS011;26663;59.302;18.082;2022-12-29T09:16:06;6.50;;;3.10;;
17650;SDS011;26663;59.302;18.082;2022-12-29T09:19:11;3.00;;;2.80;;
17650;SDS011;26663;59.302;18.082;2022-12-29T09:22:18;2.70;;;2.50;;
17650;SDS011;26663;59.302;18.082;2022-12-29T09:25:23;2.40;;;2.30;;
17650;SDS011;26663;59.302;18.082;2022-12-29T09:28:28;1.77;;;1.77;;
17650;SDS011;26663;59.302;18.082;2022-12-29T09:31:33;1.90;;;1.80;;
17650;SDS011;26663;59.302;18.082;2022-12-29T09:34:39;1.40;;;1.40;;
17650;SDS011;26663;59.302;18.082;2022-12-29T09:37:45;1.90;;;1.80;;
17650;SDS011;26663;59.302;18.082;2022-12-29T09:40:52;4.20;;;1.83;;
17650;SDS011;26663;59.302;18.082;2022-12-29T09:44:02;2.20;;;2.03;;
17650;SDS011;26663;59.302;18.082;2022-12-29T09:47:11;3.53;;;2.37;;
17650;SDS011;26663;59.302;18.082;2022-12-29T09:50:20;2.33;;;2.23;;
17650;SDS011;26663;59.302;18.082;2022-12-29T09:53:30;2.70;;;2.50;;
17650;SDS011;26663;59.302;18.082;2022-12-29T09:56:40;3.23;;;3.03;;
17650;SDS011;26663;59.302;18.082;2022-12-29T09:59:46;7.70;;;3.30;;
17650;SDS011;26663;59.302;18.082;2022-12-29T10:02:53;4.43;;;3.73;;
17650;SDS011;26663;59.302;18.082;2022-12-29T10:06:02;3.90;;;3.60;;
17650;SDS011;26663;59.302;18.082;2022-12-29T10:09:13;6.90;;;3.93;;
17650;SDS011;26663;59.302;18.082;2022-12-29T10:12:22;4.83;;;3.53;;
17650;SDS011;26663;59.302;18.082;2022-12-29T10:15:38;8.77;;;4.17;;
17650;SDS011;26663;59.302;18.082;2022-12-29T10:19:06;6.17;;;4.27;;
17650;SDS011;26663;59.302;18.082;2022-12-29T10:22:21;6.30;;;3.87;;
17650;SDS011;26663;59.302;18.082;2022-12-29T10:25:34;5.80;;;3.43;;
17650;SDS011;26663;59.302;18.082;2022-12-29T10:28:42;5.00;;;3.47;;
17650;SDS011;26663;59.302;18.082;2022-12-29T10:31:50;3.40;;;3.10;;
17650;SDS011;26663;59.302;18.082;2022-12-29T10:35:00;4.53;;;3.00;;
17650;SDS011;26663;59.302;18.082;2022-12-29T10:38:12;5.40;;;3.00;;
17650;SDS011;26663;59.302;18.082;2022-12-29T10:41:23;3.73;;;3.13;;
17650;SDS011;26663;59.302;18.082;2022-12-29T10:44:31;6.83;;;3.10;;
17650;SDS011;26663;59.302;18.082;2022-12-29T10:47:38;3.17;;;2.60;;
17650;SDS011;26663;59.302;18.082;2022-12-29T10:50:51;2.60;;;2.40;;
17650;SDS011;26663;59.302;18.082;2022-12-29T10:54:04;2.93;;;2.60;;
17650;SDS011;26663;59.302;18.082;2022-12-29T10:57:16;8.17;;;2.70;;
17650;SDS011;26663;59.302;18.082;2022-12-29T11:00:28;2.57;;;2.40;;
17650;SDS011;26663;59.302;18.082;2022-12-29T11:03:40;2.20;;;2.10;;
17650;SDS011;26663;59.302;18.082;2022-12-29T11:06:52;2.73;;;2.43;;
17650;SDS011;26663;59.302;18.082;2022-12-29T11:13:25;2.23;;;2.13;;
17650;SDS011;26663;59.302;18.082;2022-12-29T11:16:40;2.60;;;2.50;;
17650;SDS011;26663;59.302;18.082;2022-12-29T11:19:47;2.60;;;2.40;;
17650;SDS011;26663;59.302;18.082;2022-12-29T11:22:53;4.13;;;3.83;;
17650;SDS011;26663;59.302;18.082;2022-12-29T11:26:11;5.13;;;4.30;;
17650;SDS011;26663;59.302;18.082;2022-12-29T11:29:27;4.30;;;4.00;;
17650;SDS011;26663;59.302;18.082;2022-12-29T11:32:33;3.90;;;3.60;;
17650;SDS011;26663;59.302;18.082;2022-12-29T11:35:40;3.83;;;3.63;;
17650;SDS011;26663;59.302;18.082;2022-12-29T11:38:46;3.30;;;3.20;;
17650;SDS011;26663;59.302;18.082;2022-12-29T11:41:53;3.77;;;3.57;;
17650;SDS011;26663;59.302;18.082;2022-12-29T11:45:03;3.50;;;3.30;;
17650;SDS011;26663;59.302;18.082;2022-12-29T11:48:14;3.53;;;3.20;;
17650;SDS011;26663;59.302;18.082;2022-12-29T11:51:22;3.67;;;3.30;;
17650;SDS011;26663;59.302;18.082;2022-12-29T11:54:30;3.47;;;3.27;;
17650;SDS011;26663;59.302;18.082;2022-12-29T11:57:37;3.60;;;3.40;;
17650;SDS011;26663;59.302;18.082;2022-12-29T12:00:47;3.27;;;3.13;;
17650;SDS011;26663;59.302;18.082;2022-12-29T12:03:56;4.17;;;3.77;;
17650;SDS011;26663;59.302;18.082;2022-12-29T12:07:09;4.33;;;3.33;;
17650;SDS011;26663;59.302;18.082;2022-12-29T12:10:21;4.13;;;3.70;;
17650;SDS011;26663;59.302;18.082;2022-12-29T12:13:29;3.67;;;3.43;;
17650;SDS011;26663;59.302;18.082;2022-12-29T12:16:39;3.50;;;3.30;;
17650;SDS011;26663;59.302;18.082;2022-12-29T12:19:48;3.13;;;2.97;;
17650;SDS011;26663;59.302;18.082;2022-12-29T12:22:59;2.73;;;2.67;;
17650;SDS011;26663;59.302;18.082;2022-12-29T12:26:11;2.93;;;2.83;;
17650;SDS011;26663;59.302;18.082;2022-12-29T12:29:20;2.87;;;2.77;;
17650;SDS011;26663;59.302;18.082;2022-12-29T12:32:34;3.20;;;3.10;;
17650;SDS011;26663;59.302;18.082;2022-12-29T12:35:47;3.70;;;2.67;;
17650;SDS011;26663;59.302;18.082;2022-12-29T12:39:05;3.47;;;3.27;;
17650;SDS011;26663;59.302;18.082;2022-12-29T12:42:19;4.13;;;3.20;;
17650;SDS011;26663;59.302;18.082;2022-12-29T12:45:33;3.33;;;3.17;;
17650;SDS011;26663;59.302;18.082;2022-12-29T12:48:52;2.90;;;2.77;;
17650;SDS011;26663;59.302;18.082;2022-12-29T12:52:17;3.30;;;3.03;;
17650;SDS011;26663;59.302;18.082;2022-12-29T12:55:36;3.40;;;2.80;;
17650;SDS011;26663;59.302;18.082;2022-12-29T12:59:02;3.10;;;2.90;;
17650;SDS011;26663;59.302;18.082;2022-12-29T13:02:15;3.50;;;2.93;;
17650;SDS011;26663;59.302;18.082;2022-12-29T13:05:37;3.80;;;2.87;;
17650;SDS011;26663;59.302;18.082;2022-12-29T13:09:00;3.30;;;3.10;;
17650;SDS011;26663;59.302;18.082;2022-12-29T13:12:24;3.93;;;3.20;;
17650;SDS011;26663;59.302;18.082;2022-12-29T13:15:38;3.60;;;3.30;;
17650;SDS011;26663;59.302;18.082;2022-12-29T13:18:46;3.70;;;3.50;;
17650;SDS011;26663;59.302;18.082;2022-12-29T13:22:00;3.40;;;3.20;;
17650;SDS011;26663;59.302;18.082;2022-12-29T13:25:21;3.30;;;3.20;;
17650;SDS011;26663;59.302;18.082;2022-12-29T13:28:34;3.00;;;2.90;;
17650;SDS011;26663;59.302;18.082;2022-12-29T13:31:43;3.80;;;2.70;;
17650;SDS011;26663;59.302;18.082;2022-12-29T13:34:56;2.30;;;2.10;;
17650;SDS011;26663;59.302;18.082;2022-12-29T13:38:14;2.60;;;2.50;;
17650;SDS011;26663;59.302;18.082;2022-12-29T13:41:25;2.13;;;2.13;;
17650;SDS011;26663;59.302;18.082;2022-12-29T13:44:34;2.30;;;2.30;;
17650;SDS011;26663;59.302;18.082;2022-12-29T13:47:42;2.17;;;2.17;;
17650;SDS011;26663;59.302;18.082;2022-12-29T13:50:51;2.30;;;2.20;;
17650;SDS011;26663;59.302;18.082;2022-12-29T13:54:03;2.13;;;2.03;;
17650;SDS011;26663;59.302;18.082;2022-12-29T13:57:16;2.20;;;2.10;;
17650;SDS011;26663;59.302;18.082;2022-12-29T14:00:31;2.40;;;2.20;;
17650;SDS011;26663;59.302;18.082;2022-12-29T14:03:47;2.60;;;2.00;;
17650;SDS011;26663;59.302;18.082;2022-12-29T14:07:01;2.00;;;1.90;;
17650;SDS011;26663;59.302;18.082;2022-12-29T14:10:18;2.00;;;2.00;;
17650;SDS011;26663;59.302;18.082;2022-12-29T14:13:31;2.27;;;2.27;;
17650;SDS011;26663;59.302;18.082;2022-12-29T14:16:41;1.90;;;1.90;;
17650;SDS011;26663;59.302;18.082;2022-12-29T14:19:51;2.80;;;2.70;;
17650;SDS011;26663;59.302;18.082;2022-12-29T14:22:58;2.93;;;2.80;;
17650;SDS011;26663;59.302;18.082;2022-12-29T14:26:13;2.50;;;2.40;;
17650;SDS011;26663;59.302;18.082;2022-12-29T14:33:00;2.40;;;2.30;;
17650;SDS011;26663;59.302;18.082;2022-12-29T14:36:19;3.00;;;2.90;;
17650;SDS011;26663;59.302;18.082;2022-12-29T14:39:32;2.90;;;2.70;;
17650;SDS011;26663;59.302;18.082;2022-12-29T14:42:40;3.20;;;3.10;;
17650;SDS011;26663;59.302;18.082;2022-12-29T14:45:51;3.33;;;3.23;;
17650;SDS011;26663;59.302;18.082;2022-12-29T14:49:02;3.87;;;3.60;;
17650;SDS011;26663;59.302;18.082;2022-12-29T14:52:13;7.27;;;5.37;;
17650;SDS011;26663;59.302;18.082;2022-12-29T14:55:35;4.43;;;4.00;;
17650;SDS011;26663;59.302;18.082;2022-12-29T14:58:48;4.80;;;4.40;;
17650;SDS011;26663;59.302;18.082;2022-12-29T15:01:56;15.23;;;8.43;;
17650;SDS011;26663;59.302;18.082;2022-12-29T15:05:01;8.40;;;5.93;;
17650;SDS011;26663;59.302;18.082;2022-12-29T15:08:10;8.40;;;6.70;;
17650;SDS011;26663;59.302;18.082;2022-12-29T15:11:18;7.13;;;5.87;;
17650;SDS011;26663;59.302;18.082;2022-12-29T15:14:30;7.30;;;6.43;;
17650;SDS011;26663;59.302;18.082;2022-12-29T15:17:36;7.03;;;5.10;;
17650;SDS011;26663;59.302;18.082;2022-12-29T15:20:42;8.17;;;6.27;;
17650;SDS011;26663;59.302;18.082;2022-12-29T15:23:47;10.23;;;5.50;;
17650;SDS011;26663;59.302;18.082;2022-12-29T15:26:53;6.70;;;5.40;;
17650;SDS011;26663;59.302;18.082;2022-12-29T15:30:01;8.03;;;5.17;;
17650;SDS011;26663;59.302;18.082;2022-12-29T15:33:18;5.37;;;4.87;;
17650;SDS011;26663;59.302;18.082;2022-12-29T15:36:26;6.70;;;4.43;;
17650;SDS011;26663;59.302;18.082;2022-12-29T15:39:32;7.53;;;5.17;;
17650;SDS011;26663;59.302;18.082;2022-12-29T15:46:12;5.40;;;4.23;;
17650;SDS011;26663;59.302;18.082;2022-12-29T15:49:17;5.37;;;3.93;;
17650;SDS011;26663;59.302;18.082;2022-12-29T15:52:28;4.50;;;4.10;;
17650;SDS011;26663;59.302;18.082;2022-12-29T15:55:36;3.90;;;3.60;;
17650;SDS011;26663;59.302;18.082;2022-12-29T15:58:42;4.10;;;3.70;;
17650;SDS011;26663;59.302;18.082;2022-12-29T16:01:51;3.83;;;3.50;;
17650;SDS011;26663;59.302;18.082;2022-12-29T16:04:57;4.07;;;3.77;;
17650;SDS011;26663;59.302;18.082;2022-12-29T16:08:28;3.30;;;2.80;;
17650;SDS011;26663;59.302;18.082;2022-12-29T16:11:36;3.40;;;3.10;;
17650;SDS011;26663;59.302;18.082;2022-12-29T16:14:44;3.63;;;3.30;;
17650;SDS011;26663;59.302;18.082;2022-12-29T16:17:52;3.40;;;3.20;;
17650;SDS011;26663;59.302;18.082;2022-12-29T16:20:58;3.60;;;3.30;;
17650;SDS011;26663;59.302;18.082;2022-12-29T16:24:05;3.53;;;3.27;;
17650;SDS011;26663;59.302;18.082;2022-12-29T16:27:14;6.50;;;3.50;;
17650;SDS011;26663;59.302;18.082;2022-12-29T16:30:23;3.90;;;3.70;;
17650;SDS011;26663;59.302;18.082;2022-12-29T16:33:38;3.73;;;3.63;;
17650;SDS011;26663;59.302;18.082;2022-12-29T16:36:52;4.27;;;3.87;;
17650;SDS011;26663;59.302;18.082;2022-12-29T16:40:18;6.87;;;4.03;;
17650;SDS011;26663;59.302;18.082;2022-12-29T16:43:30;5.03;;;4.53;;
17650;SDS011;26663;59.302;18.082;2022-12-29T16:46:37;6.10;;;4.00;;
17650;SDS011;26663;59.302;18.082;2022-12-29T16:49:50;6.50;;;4.33;;
17650;SDS011;26663;59.302;18.082;2022-12-29T16:52:56;5.57;;;3.70;;
17650;SDS011;26663;59.302;18.082;2022-12-29T16:56:03;5.47;;;4.03;;
17650;SDS011;26663;59.302;18.082;2022-12-29T16:59:17;7.53;;;4.50;;
17650;SDS011;26663;59.302;18.082;2022-12-29T17:02:29;11.43;;;4.73;;
17650;SDS011;26663;59.302;18.082;2022-12-29T17:05:37;7.30;;;4.30;;
17650;SDS011;26663;59.302;18.082;2022-12-29T17:08:43;4.33;;;4.10;;
17650;SDS011;26663;59.302;18.082;2022-12-29T17:11:49;6.67;;;4.87;;
17650;SDS011;26663;59.302;18.082;2022-12-29T17:15:10;5.57;;;4.17;;
17650;SDS011;26663;59.302;18.082;2022-12-29T17:18:19;4.27;;;4.00;;
17650;SDS011;26663;59.302;18.082;2022-12-29T17:21:25;8.37;;;4.83;;
17650;SDS011;26663;59.302;18.082;2022-12-29T17:24:31;5.70;;;4.00;;
17650;SDS011;26663;59.302;18.082;2022-12-29T17:27:37;6.77;;;4.27;;
17650;SDS011;26663;59.302;18.082;2022-12-29T17:30:46;5.50;;;3.90;;
17650;SDS011;26663;59.302;18.082;2022-12-29T17:33:52;4.63;;;4.23;;
17650;SDS011;26663;59.302;18.082;2022-12-29T17:37:00;4.93;;;4.53;;
17650;SDS011;26663;59.302;18.082;2022-12-29T17:40:07;4.90;;;4.50;;
17650;SDS011;26663;59.302;18.082;2022-12-29T17:43:15;4.73;;;4.43;;
17650;SDS011;26663;59.302;18.082;2022-12-29T17:46:21;10.10;;;5.13;;
17650;SDS011;26663;59.302;18.082;2022-12-29T17:49:27;5.60;;;4.23;;
17650;SDS011;26663;59.302;18.082;2022-12-29T17:52:34;4.47;;;3.87;;
17650;SDS011;26663;59.302;18.082;2022-12-29T17:55:39;6.60;;;4.47;;
17650;SDS011;26663;59.302;18.082;2022-12-29T17:58:45;6.33;;;4.67;;
17650;SDS011;26663;59.302;18.082;2022-12-29T18:01:53;8.87;;;4.57;;
17650;SDS011;26663;59.302;18.082;2022-12-29T18:05:01;25.90;;;7.63;;
17650;SDS011;26663;59.302;18.082;2022-12-29T18:08:10;11.17;;;5.63;;
17650;SDS011;26663;59.302;18.082;2022-12-29T18:11:22;13.30;;;4.47;;
17650;SDS011;26663;59.302;18.082;2022-12-29T18:14:28;10.13;;;4.53;;
17650;SDS011;26663;59.302;18.082;2022-12-29T18:17:34;11.57;;;4.83;;
17650;SDS011;26663;59.302;18.082;2022-12-29T18:20:40;8.93;;;4.10;;
17650;SDS011;26663;59.302;18.082;2022-12-29T18:23:48;7.60;;;4.50;;
17650;SDS011;26663;59.302;18.082;2022-12-29T18:26:54;4.87;;;3.90;;
17650;SDS011;26663;59.302;18.082;2022-12-29T18:29:59;6.03;;;3.80;;
17650;SDS011;26663;59.302;18.082;2022-12-29T18:33:05;8.77;;;4.47;;
17650;SDS011;26663;59.302;18.082;2022-12-29T18:36:19;4.00;;;3.43;;
17650;SDS011;26663;59.302;18.082;2022-12-29T18:39:27;5.40;;;3.63;;
17650;SDS011;26663;59.302;18.082;2022-12-29T18:42:32;4.00;;;3.80;;
17650;SDS011;26663;59.302;18.082;2022-12-29T18:45:38;5.63;;;3.97;;
17650;SDS011;26663;59.302;18.082;2022-12-29T18:48:44;10.73;;;5.63;;
17650;SDS011;26663;59.302;18.082;2022-12-29T18:51:50;10.13;;;4.10;;
17650;SDS011;26663;59.302;18.082;2022-12-29T18:54:56;6.77;;;3.70;;
17650;SDS011;26663;59.302;18.082;2022-12-29T18:58:02;13.47;;;4.40;;
17650;SDS011;26663;59.302;18.082;2022-12-29T19:01:09;9.83;;;3.73;;
17650;SDS011;26663;59.302;18.082;2022-12-29T19:04:23;5.90;;;3.90;;